Time;durP1;ratioP1;P1;durP2;ratioP2;P2;SDS_P1;SDS_P2;PMS_P1;PMS_P2;Temp;Humidity;BMP_temperature;BMP_pressure;BME280_temperature;BME280_humidity;BME280_pressure;Samples;Min_cycle;Max_cycle;Signal;HPM_P1;HPM_P2
2020/12/09 00:00:35;;;;;;;42.88;19.77;;;0.70;99.90;;;;;;5093275;28;20047;-79
2020/12/09 00:03:01;;;;;;;41.75;18.95;;;0.80;99.90;;;;;;5093852;28;20039;-79
2020/12/09 00:05:26;;;;;;;43.85;21.00;;;0.90;99.90;;;;;;5093013;28;20123;-79
2020/12/09 00:07:52;;;;;;;45.83;20.25;;;0.90;99.90;;;;;;5093709;28;20040;-79
2020/12/09 00:10:17;;;;;;;46.25;20.55;;;1.00;99.90;;;;;;5094574;28;20060;-79
2020/12/09 00:12:44;;;;;;;47.63;21.15;;;1.10;99.90;;;;;;5093852;28;20484;-79
2020/12/09 00:15:10;;;;;;;53.80;21.58;;;1.10;99.90;;;;;;5094776;28;20036;-80
2020/12/09 00:17:36;;;;;;;55.67;21.00;;;1.10;99.90;;;;;;5094505;28;20050;-79
2020/12/09 00:20:02;;;;;;;42.80;20.08;;;1.10;99.90;;;;;;5095241;28;20110;-79
2020/12/09 00:22:28;;;;;;;48.60;20.05;;;1.00;99.90;;;;;;5094803;28;20485;-79
2020/12/09 00:24:53;;;;;;;42.00;19.23;;;1.10;99.90;;;;;;5093890;28;20063;-79
2020/12/09 00:27:19;;;;;;;48.53;20.30;;;1.00;99.90;;;;;;5093319;28;20044;-79
2020/12/09 00:29:46;;;;;;;36.92;18.75;;;1.00;99.90;;;;;;5094429;28;20107;-79
2020/12/09 00:32:12;;;;;;;39.50;18.08;;;;;;;;;;5093242;28;20409;-79
2020/12/09 00:34:38;;;;;;;40.65;19.55;;;1.00;99.90;;;;;;5093404;28;20042;-79
2020/12/09 00:37:03;;;;;;;34.45;18.17;;;1.00;99.90;;;;;;5093365;28;20104;-79
2020/12/09 00:39:29;;;;;;;37.90;17.17;;;1.00;99.90;;;;;;5094973;28;20036;-80
2020/12/09 00:41:55;;;;;;;41.55;18.48;;;1.00;99.90;;;;;;5110470;28;20040;-79
2020/12/09 00:44:21;;;;;;;40.03;19.50;;;1.10;99.90;;;;;;5093885;28;20047;-80
2020/12/09 00:46:47;;;;;;;41.72;19.42;;;1.10;99.90;;;;;;5094950;28;20059;-79
2020/12/09 00:49:15;;;;;;;41.83;19.58;;;1.10;99.90;;;;;;5094947;28;20518;-79
2020/12/09 00:51:41;;;;;;;49.38;19.13;;;1.10;99.90;;;;;;5094129;28;20062;-79
2020/12/09 00:54:07;;;;;;;38.78;18.02;;;1.10;99.90;;;;;;5094920;28;20545;-80
2020/12/09 00:56:32;;;;;;;40.17;19.10;;;1.10;99.90;;;;;;5094721;28;20040;-79
2020/12/09 00:58:58;;;;;;;36.88;17.27;;;1.10;99.90;;;;;;5093422;28;20101;-79
2020/12/09 01:01:24;;;;;;;38.17;18.98;;;1.10;99.90;;;;;;5093098;28;20036;-79
2020/12/09 01:03:50;;;;;;;51.92;18.00;;;1.10;99.90;;;;;;5093359;28;20400;-80
2020/12/09 01:06:16;;;;;;;38.05;18.27;;;1.10;99.90;;;;;;5092723;28;20390;-79
2020/12/09 01:08:42;;;;;;;37.08;17.35;;;1.10;99.90;;;;;;5091601;28;20036;-79
2020/12/09 01:11:07;;;;;;;40.28;18.52;;;1.10;99.90;;;;;;5100365;28;20047;-79
2020/12/09 01:13:34;;;;;;;37.25;17.58;;;1.10;99.90;;;;;;5112182;28;20135;-79
2020/12/09 01:15:59;;;;;;;47.33;17.95;;;1.20;99.90;;;;;;5112165;28;20043;-79
2020/12/09 01:18:25;;;;;;;41.95;19.58;;;1.20;99.90;;;;;;5115775;28;20035;-80
2020/12/09 01:20:51;;;;;;;39.53;17.55;;;1.20;99.90;;;;;;5117796;28;20071;-80
2020/12/09 01:23:17;;;;;;;76.25;19.25;;;1.20;99.90;;;;;;5117053;28;20043;-80
2020/12/09 01:25:43;;;;;;;36.35;17.42;;;1.10;99.90;;;;;;5116761;28;20040;-80
2020/12/09 01:28:08;;;;;;;36.90;17.20;;;1.10;99.90;;;;;;5110586;28;20386;-79
2020/12/09 01:30:34;;;;;;;37.30;17.20;;;1.20;99.90;;;;;;5116623;28;20543;-79
2020/12/09 01:33:00;;;;;;;37.40;17.52;;;1.20;99.90;;;;;;5108209;28;20032;-79
2020/12/09 01:35:26;;;;;;;33.72;16.73;;;1.10;99.90;;;;;;5118907;28;20401;-79
2020/12/09 01:37:53;;;;;;;37.08;17.50;;;1.10;99.90;;;;;;5118025;28;20032;-79
2020/12/09 01:40:19;;;;;;;38.45;19.65;;;1.10;99.90;;;;;;5116575;28;20043;-79
2020/12/09 01:42:45;;;;;;;39.28;18.08;;;1.10;99.90;;;;;;5108179;28;20036;-80
2020/12/09 01:45:10;;;;;;;38.20;18.67;;;1.20;99.90;;;;;;5096891;28;20040;-79
2020/12/09 01:47:40;;;;;;;39.22;19.25;;;1.20;99.90;;;;;;5098254;28;20043;-79
2020/12/09 01:50:06;;;;;;;37.78;18.63;;;1.30;99.90;;;;;;5097563;28;20048;-79
2020/12/09 01:52:32;;;;;;;38.58;18.55;;;1.30;99.90;;;;;;5096702;28;20101;-79
2020/12/09 01:54:58;;;;;;;39.25;18.85;;;1.20;99.90;;;;;;5096665;28;20473;-79
2020/12/09 01:57:24;;;;;;;55.45;18.88;;;1.10;99.90;;;;;;5096687;28;20052;-79
2020/12/09 01:59:50;;;;;;;46.60;18.15;;;;;;;;;;5096709;28;20044;-79
2020/12/09 02:02:16;;;;;;;42.03;18.15;;;1.00;99.90;;;;;;5097084;28;20047;-79
2020/12/09 02:04:42;;;;;;;59.70;19.92;;;;;;;;;;5097014;28;20036;-80
2020/12/09 02:07:08;;;;;;;43.22;19.85;;;1.00;99.90;;;;;;5097942;28;20111;-79
2020/12/09 02:09:34;;;;;;;38.22;18.23;;;;;;;;;;5100375;28;20071;-79
2020/12/09 02:12:01;;;;;;;44.33;19.35;;;;;;;;;;5095795;28;20143;-79
2020/12/09 02:14:27;;;;;;;45.78;20.60;;;1.20;99.90;;;;;;5096104;28;20055;-79
2020/12/09 02:16:55;;;;;;;42.80;19.73;;;1.20;99.90;;;;;;5095833;28;20040;-79
2020/12/09 02:19:21;;;;;;;40.30;18.67;;;1.20;99.90;;;;;;5095481;28;20508;-79
2020/12/09 02:21:48;;;;;;;45.15;19.10;;;1.30;99.90;;;;;;5096938;28;20042;-79
2020/12/09 02:24:14;;;;;;;42.17;19.85;;;1.30;99.90;;;;;;5096852;28;20436;-79
2020/12/09 02:26:41;;;;;;;54.20;21.42;;;1.40;99.90;;;;;;5095518;28;20039;-79
2020/12/09 02:29:07;;;;;;;43.38;19.88;;;1.30;99.90;;;;;;5096193;28;20043;-79
2020/12/09 02:31:33;;;;;;;52.92;18.75;;;1.30;99.90;;;;;;5097005;28;20051;-79
2020/12/09 02:33:58;;;;;;;53.38;20.83;;;1.40;99.90;;;;;;5095619;28;20044;-79
2020/12/09 02:36:24;;;;;;;42.95;18.70;;;1.40;99.90;;;;;;5095428;28;20036;-79
2020/12/09 02:38:51;;;;;;;41.65;18.58;;;1.40;99.90;;;;;;5094854;28;20040;-79
2020/12/09 02:41:16;;;;;;;48.47;20.13;;;1.30;99.90;;;;;;5094998;28;20052;-79
2020/12/09 02:43:42;;;;;;;49.33;21.10;;;1.30;99.90;;;;;;5095100;28;20577;-80
2020/12/09 02:46:07;;;;;;;46.75;18.63;;;1.40;99.90;;;;;;5094981;28;20036;-79
2020/12/09 02:48:33;;;;;;;45.38;19.20;;;1.50;99.90;;;;;;5094948;28;20043;-79
2020/12/09 02:50:59;;;;;;;45.70;20.42;;;1.50;99.90;;;;;;5094692;28;20470;-79
2020/12/09 02:53:24;;;;;;;44.38;20.13;;;1.40;99.90;;;;;;5096360;28;20040;-79
2020/12/09 02:55:51;;;;;;;45.75;19.38;;;1.40;99.90;;;;;;5096357;28;20036;-79
2020/12/09 02:58:16;;;;;;;51.47;20.08;;;1.40;99.90;;;;;;5095052;28;20440;-79
2020/12/09 03:00:42;;;;;;;44.13;20.50;;;1.40;99.90;;;;;;5094674;28;20032;-79
2020/12/09 03:03:08;;;;;;;45.72;20.05;;;1.50;99.90;;;;;;5093705;28;20556;-79
2020/12/09 03:05:33;;;;;;;43.25;19.75;;;1.50;99.90;;;;;;5094693;28;20047;-79
2020/12/09 03:07:59;;;;;;;43.25;19.45;;;1.50;99.90;;;;;;5094717;28;20059;-79
2020/12/09 03:10:24;;;;;;;40.33;19.05;;;1.50;99.90;;;;;;5094079;28;20044;-79
2020/12/09 03:12:51;;;;;;;46.13;20.67;;;1.60;99.90;;;;;;5094386;28;20047;-79
2020/12/09 03:15:17;;;;;;;46.53;19.52;;;1.60;99.90;;;;;;5095856;28;20047;-79
2020/12/09 03:17:42;;;;;;;39.72;18.58;;;1.70;99.90;;;;;;5094336;28;20032;-79
2020/12/09 03:20:08;;;;;;;43.72;18.83;;;1.70;99.90;;;;;;5094199;28;20460;-79
2020/12/09 03:22:33;;;;;;;41.47;18.70;;;1.70;99.90;;;;;;5095117;28;20044;-79
2020/12/09 03:24:59;;;;;;;41.30;19.38;;;1.70;99.90;;;;;;5094093;28;20067;-79
2020/12/09 03:27:24;;;;;;;52.03;20.63;;;1.60;99.90;;;;;;5095604;28;20047;-79
2020/12/09 03:29:52;;;;;;;41.88;20.10;;;1.60;99.90;;;;;;5094937;28;20101;-79
2020/12/09 03:32:18;;;;;;;39.65;19.13;;;1.50;99.90;;;;;;5094140;28;20044;-79
2020/12/09 03:34:44;;;;;;;41.95;19.05;;;1.60;99.90;;;;;;5094094;28;20032;-79
2020/12/09 03:37:09;;;;;;;45.47;20.35;;;1.60;99.90;;;;;;5094040;28;20074;-79
2020/12/09 03:39:35;;;;;;;47.03;20.38;;;1.60;99.90;;;;;;5093382;28;20072;-79
2020/12/09 03:42:00;;;;;;;48.67;20.73;;;1.60;99.90;;;;;;5095087;28;20036;-79
2020/12/09 03:44:26;;;;;;;52.28;22.15;;;1.60;99.90;;;;;;5093851;28;20378;-79
2020/12/09 03:46:56;;;;;;;53.65;21.40;;;1.60;99.90;;;;;;5095222;28;20044;-79
2020/12/09 03:49:22;;;;;;;;;;;1.60;99.90;;;;;;5094232;28;20452;-79
2020/12/09 03:51:47;;;;;;;48.05;19.45;;;1.60;99.90;;;;;;5093655;28;19916;-79
2020/12/09 03:54:13;;;;;;;55.97;22.83;;;1.70;99.90;;;;;;5095031;28;20043;-78
2020/12/09 03:56:38;;;;;;;54.25;21.25;;;1.70;99.90;;;;;;5095426;28;20450;-79
2020/12/09 03:59:04;;;;;;;62.88;22.33;;;1.70;99.90;;;;;;5094677;28;20054;-80
2020/12/09 04:01:30;;;;;;;52.60;21.73;;;1.60;99.90;;;;;;5093525;28;20103;-80
2020/12/09 04:03:56;;;;;;;58.47;24.38;;;1.60;99.90;;;;;;5093059;28;20039;-80
2020/12/09 04:06:22;;;;;;;57.60;22.00;;;1.70;99.90;;;;;;5094535;28;20039;-80
2020/12/09 04:08:47;;;;;;;61.47;22.30;;;1.60;99.90;;;;;;5094877;28;20035;-80
2020/12/09 04:11:13;;;;;;;52.67;21.65;;;1.70;99.90;;;;;;5094401;28;20063;-80
2020/12/09 04:13:38;;;;;;;51.33;21.73;;;1.90;99.90;;;;;;5093935;28;20036;-80
2020/12/09 04:16:04;;;;;;;50.55;21.80;;;1.80;99.90;;;;;;5095100;28;20078;-80
2020/12/09 04:18:30;;;;;;;51.95;22.17;;;1.80;99.90;;;;;;5094973;28;20044;-80
2020/12/09 04:20:56;;;;;;;46.33;19.88;;;1.90;99.90;;;;;;5106786;28;20095;-82
2020/12/09 04:23:22;;;;;;;55.55;22.00;;;2.00;99.90;;;;;;5104755;28;20044;-81
2020/12/09 04:25:47;;;;;;;50.80;20.73;;;2.00;99.90;;;;;;5101802;28;20036;-80
2020/12/09 04:28:13;;;;;;;46.90;20.33;;;2.00;99.90;;;;;;5093350;28;20096;-80
2020/12/09 04:30:38;;;;;;;50.33;20.98;;;2.00;99.90;;;;;;5093784;28;20079;-80
2020/12/09 04:33:04;;;;;;;48.42;20.23;;;2.00;99.90;;;;;;5094455;28;20118;-80
2020/12/09 04:35:30;;;;;;;51.47;21.77;;;1.90;99.90;;;;;;5094305;28;20390;-80
2020/12/09 04:37:56;;;;;;;46.17;20.05;;;1.90;99.90;;;;;;5093125;28;20059;-80
2020/12/09 04:40:24;;;;;;;51.42;22.05;;;1.80;99.90;;;;;;5092593;28;20134;-80
2020/12/09 04:42:55;;;;;;;54.63;21.83;;;1.80;99.90;;;;;;5094047;28;20119;-79
2020/12/09 04:45:20;;;;;;;;;;;1.80;99.90;;;;;;5093028;28;20145;-78
2020/12/09 04:47:55;;;;;;;57.13;21.75;;;1.80;99.90;;;;;;5094033;28;20422;-80
2020/12/09 04:50:25;;;;;;;53.53;22.35;;;1.80;99.90;;;;;;5096563;28;20134;-79
2020/12/09 04:53:01;;;;;;;61.20;23.38;;;1.80;99.90;;;;;;5113123;28;20122;-78
2020/12/09 04:55:31;;;;;;;47.45;21.05;;;1.80;99.90;;;;;;5112945;28;20089;-79
2020/12/09 04:58:14;;;;;;;58.55;23.08;;;1.80;99.90;;;;;;5113238;28;20401;-78
2020/12/09 05:00:41;;;;;;;57.30;22.50;;;1.90;99.90;;;;;;5113774;28;20500;-78
2020/12/09 05:03:15;;;;;;;57.85;22.52;;;1.90;99.90;;;;;;5115687;28;20111;-79
2020/12/09 05:05:41;;;;;;;48.70;19.73;;;1.90;99.90;;;;;;5115304;28;20040;-80
2020/12/09 05:08:14;;;;;;;67.13;23.88;;;2.00;99.90;;;;;;5116582;28;20095;-79
2020/12/09 05:10:46;;;;;;;54.80;21.20;;;2.00;99.90;;;;;;5114598;28;20477;-79
2020/12/09 05:13:19;;;;;;;49.72;20.70;;;2.00;99.90;;;;;;5114093;28;20544;-80
2020/12/09 05:15:47;;;;;;;55.28;22.13;;;1.90;99.90;;;;;;5112775;28;20093;-79
2020/12/09 05:18:16;;;;;;;62.58;23.02;;;1.80;99.90;;;;;;5112750;28;20131;-80
2020/12/09 05:20:42;;;;;;;58.65;23.17;;;1.80;99.90;;;;;;5112323;28;20481;-80
2020/12/09 05:23:09;;;;;;;57.63;21.88;;;1.80;99.90;;;;;;5112793;28;20039;-78
2020/12/09 05:25:37;;;;;;;47.72;20.73;;;1.70;99.90;;;;;;5112636;28;20044;-79
2020/12/09 05:28:04;;;;;;;57.38;22.17;;;1.70;99.90;;;;;;5114384;28;20052;-80
2020/12/09 05:30:44;;;;;;;53.20;21.83;;;1.70;99.90;;;;;;5113654;28;20070;-79
2020/12/09 05:33:10;;;;;;;;;;;1.70;99.90;;;;;;5113266;28;20046;-80
2020/12/09 05:35:37;;;;;;;51.45;20.73;;;1.70;99.90;;;;;;5112577;28;19915;-80
2020/12/09 05:38:14;;;;;;;50.80;22.10;;;1.80;99.90;;;;;;5112842;28;20042;-80
2020/12/09 05:40:43;;;;;;;51.70;21.80;;;1.80;99.90;;;;;;5113170;28;20418;-80
2020/12/09 05:43:09;;;;;;;48.28;21.00;;;1.80;99.90;;;;;;5116261;28;20504;-80
2020/12/09 05:45:35;;;;;;;51.42;20.77;;;1.80;99.90;;;;;;5117021;28;20036;-80
2020/12/09 05:48:14;;;;;;;51.92;21.85;;;2.00;99.90;;;;;;5115086;28;20370;-79
2020/12/09 05:50:52;;;;;;;50.50;21.92;;;2.10;99.90;;;;;;5111933;28;20097;-79
2020/12/09 05:53:19;;;;;;;53.17;21.83;;;2.10;99.90;;;;;;5112417;28;20039;-79
2020/12/09 05:55:47;;;;;;;56.25;21.63;;;2.10;99.90;;;;;;5112425;28;20066;-79
2020/12/09 05:58:20;;;;;;;52.97;20.13;;;2.00;99.90;;;;;;5112383;28;20043;-79
2020/12/09 06:01:03;;;;;;;43.90;19.77;;;2.00;99.90;;;;;;5112165;28;20038;-79
2020/12/09 06:03:29;;;;;;;44.77;19.77;;;1.90;99.90;;;;;;5114868;28;20078;-79
2020/12/09 06:06:16;;;;;;;46.88;20.10;;;1.80;99.90;;;;;;5117282;28;20040;-80
2020/12/09 06:08:44;;;;;;;49.22;21.60;;;1.80;99.90;;;;;;5115659;28;20074;-80
2020/12/09 06:11:12;;;;;;;53.83;22.45;;;1.80;99.90;;;;;;5115899;28;20126;-79
2020/12/09 06:13:38;;;;;;;50.78;21.20;;;1.80;99.90;;;;;;5115936;28;20120;-80
2020/12/09 06:16:05;;;;;;;52.83;21.10;;;1.90;99.90;;;;;;5115850;28;20036;-79
2020/12/09 06:18:32;;;;;;;49.47;20.42;;;1.90;99.90;;;;;;5117218;28;20035;-80
2020/12/09 06:20:58;;;;;;;47.80;20.70;;;2.00;99.90;;;;;;5115349;28;20090;-80
2020/12/09 06:23:28;;;;;;;46.33;21.00;;;2.00;99.90;;;;;;5117206;28;20062;-81
2020/12/09 06:25:55;;;;;;;45.67;20.77;;;2.10;99.90;;;;;;5118454;28;20036;-81
2020/12/09 06:28:23;;;;;;;47.25;20.95;;;2.10;99.90;;;;;;5118459;27;20032;-81
2020/12/09 06:30:50;;;;;;;49.72;20.23;;;2.10;99.90;;;;;;5115467;28;20050;-81
2020/12/09 06:33:32;;;;;;;44.45;19.38;;;2.10;99.90;;;;;;5117039;28;20527;-81
2020/12/09 06:36:20;;;;;;;46.65;20.40;;;2.10;99.90;;;;;;5115562;28;20130;-81
2020/12/09 06:39:12;;;;;;;52.85;20.98;;;2.10;99.90;;;;;;5115394;28;20492;-81
2020/12/09 06:41:44;;;;;;;53.78;21.98;;;2.10;99.90;;;;;;5116550;28;20054;-80
2020/12/09 06:44:11;;;;;;;52.75;20.83;;;2.10;99.90;;;;;;5116944;28;20072;-80
2020/12/09 06:46:43;;;;;;;47.40;20.45;;;2.00;99.90;;;;;;5116059;28;20043;-80
2020/12/09 06:49:31;;;;;;;51.10;21.92;;;2.00;99.90;;;;;;5116169;28;20036;-80
2020/12/09 06:51:58;;;;;;;50.50;20.33;;;2.00;99.90;;;;;;5115341;28;20046;-80
2020/12/09 06:54:36;;;;;;;52.38;21.38;;;2.00;99.90;;;;;;5116943;28;20040;-80
2020/12/09 06:57:12;;;;;;;55.53;20.70;;;2.10;99.90;;;;;;5116795;28;20050;-79
2020/12/09 06:59:38;;;;;;;44.92;20.85;;;1.90;99.90;;;;;;5115985;28;20043;-80
2020/12/09 07:02:05;;;;;;;52.38;20.48;;;1.70;99.90;;;;;;5114867;28;20545;-80
2020/12/09 07:05:05;;;;;;;51.15;20.95;;;1.70;99.90;;;;;;5116498;28;20047;-81
2020/12/09 07:07:33;;;;;;;49.67;19.70;;;1.80;99.90;;;;;;5116554;28;20036;-80
2020/12/09 07:09:59;;;;;;;50.25;19.67;;;1.90;99.90;;;;;;5114737;28;20043;-81
2020/12/09 07:12:26;;;;;;;49.42;20.55;;;2.00;99.90;;;;;;5114990;28;20404;-80
2020/12/09 07:14:54;;;;;;;55.72;22.58;;;2.10;99.90;;;;;;5115228;28;20063;-80
2020/12/09 07:17:22;;;;;;;57.97;22.02;;;1.80;99.90;;;;;;5117622;28;20040;-81
2020/12/09 07:19:47;;;;;;;58.25;22.33;;;1.70;99.90;;;;;;5119624;28;20073;-81
2020/12/09 07:22:13;;;;;;;49.70;20.30;;;1.80;99.90;;;;;;5118082;28;20040;-81
2020/12/09 07:24:39;;;;;;;50.42;20.92;;;1.90;99.90;;;;;;5118399;28;20043;-80
2020/12/09 07:27:04;;;;;;;48.60;19.85;;;2.00;99.90;;;;;;5119153;28;20126;-80
2020/12/09 07:29:30;;;;;;;53.70;21.35;;;2.10;99.90;;;;;;5117512;28;20557;-80
2020/12/09 07:32:01;;;;;;;50.42;20.63;;;2.20;99.90;;;;;;5120044;28;20059;-80
2020/12/09 07:34:27;;;;;;;42.67;18.83;;;2.20;99.90;;;;;;5119586;28;20527;-80
2020/12/09 07:36:54;;;;;;;49.95;20.63;;;2.30;99.90;;;;;;5118325;28;20096;-80
2020/12/09 07:39:32;;;;;;;45.45;19.88;;;2.40;99.90;;;;;;5115294;28;20092;-80
2020/12/09 07:41:58;;;;;;;52.55;21.08;;;2.40;99.90;;;;;;5117635;28;20035;-81
2020/12/09 07:44:24;;;;;;;56.75;23.05;;;2.40;99.90;;;;;;5117744;28;20396;-79
2020/12/09 07:46:54;;;;;;;54.60;21.88;;;2.00;99.90;;;;;;5114225;28;20130;-79
2020/12/09 07:49:21;;;;;;;51.42;20.77;;;1.70;99.90;;;;;;5113886;28;20130;-79
2020/12/09 07:51:47;;;;;;;51.65;20.90;;;1.80;99.90;;;;;;5113915;28;20053;-79
2020/12/09 07:54:14;;;;;;;53.60;21.25;;;1.90;99.90;;;;;;5115290;28;20455;-79
2020/12/09 07:56:39;;;;;;;52.42;22.35;;;2.00;99.90;;;;;;5115224;28;20493;-79
2020/12/09 07:59:05;;;;;;;55.45;21.20;;;2.00;99.90;;;;;;5114785;28;20040;-79
2020/12/09 08:01:31;;;;;;;53.38;20.42;;;2.00;99.90;;;;;;5114984;28;20088;-80
2020/12/09 08:03:56;;;;;;;58.22;22.58;;;2.00;99.90;;;;;;5115060;28;20040;-79
2020/12/09 08:06:23;;;;;;;57.47;21.65;;;2.10;99.90;;;;;;5114886;28;20039;-79
2020/12/09 08:08:50;;;;;;;54.67;22.15;;;2.20;99.90;;;;;;5113500;28;20051;-79
2020/12/09 08:11:16;;;;;;;60.13;22.15;;;2.20;99.90;;;;;;5116500;28;20493;-79
2020/12/09 08:13:42;;;;;;;57.95;21.00;;;2.00;99.90;;;;;;5115903;28;20036;-79
2020/12/09 08:16:11;;;;;;;56.72;20.40;;;2.20;99.90;;;;;;5115741;28;20472;-79
2020/12/09 08:18:38;;;;;;;60.15;22.80;;;2.20;99.90;;;;;;5113336;28;20112;-79
2020/12/09 08:21:04;;;;;;;64.93;22.05;;;2.30;99.90;;;;;;5113465;28;20498;-80
2020/12/09 08:23:50;;;;;;;59.35;22.23;;;2.20;99.90;;;;;;5113417;28;20035;-79
2020/12/09 08:26:30;;;;;;;57.83;22.13;;;2.20;99.90;;;;;;5113100;28;20039;-80
2020/12/09 08:28:56;;;;;;;55.15;20.70;;;2.00;99.90;;;;;;5113915;28;20046;-80
2020/12/09 08:31:21;;;;;;;66.55;22.73;;;2.00;99.90;;;;;;5114557;28;20047;-79
2020/12/09 08:33:47;;;;;;;71.03;23.27;;;1.90;99.90;;;;;;5114883;28;20048;-80
2020/12/09 08:36:14;;;;;;;65.38;22.58;;;1.60;99.90;;;;;;5113252;28;20035;-79
2020/12/09 08:38:41;;;;;;;59.17;21.52;;;1.50;99.90;;;;;;5114001;28;20413;-79
2020/12/09 08:41:09;;;;;;;60.30;22.88;;;1.50;99.90;;;;;;5113121;28;20493;-79
2020/12/09 08:43:36;;;;;;;72.35;24.80;;;1.60;99.90;;;;;;5115359;28;20114;-77
2020/12/09 08:46:03;;;;;;;63.92;23.10;;;1.70;99.90;;;;;;5113118;28;20035;-79
2020/12/09 08:48:29;;;;;;;66.90;25.33;;;1.80;99.90;;;;;;5114564;28;20110;-80
2020/12/09 08:50:55;;;;;;;63.50;23.15;;;1.90;99.90;;;;;;5115474;28;20063;-79
2020/12/09 08:53:21;;;;;;;64.80;23.77;;;1.90;99.90;;;;;;5114563;28;20036;-79
2020/12/09 08:55:48;;;;;;;65.55;23.60;;;1.90;99.90;;;;;;5113174;28;20039;-78
2020/12/09 08:58:15;;;;;;;73.57;24.17;;;1.90;99.90;;;;;;5112995;28;20048;-79
2020/12/09 09:00:41;;;;;;;62.28;22.27;;;1.80;99.90;;;;;;5114015;28;20074;-79
2020/12/09 09:03:12;;;;;;;66.35;22.73;;;1.80;99.90;;;;;;5112816;28;20074;-79
2020/12/09 09:05:40;;;;;;;64.05;21.92;;;1.90;99.90;;;;;;5117254;28;20032;-81
2020/12/09 09:08:06;;;;;;;60.88;22.92;;;1.90;99.90;;;;;;5118199;28;20063;-81
2020/12/09 09:10:32;;;;;;;64.30;23.52;;;1.80;99.90;;;;;;5116565;28;20070;-79
2020/12/09 09:12:58;;;;;;;63.80;22.30;;;1.90;99.90;;;;;;5113341;28;20071;-80
2020/12/09 09:15:24;;;;;;;61.88;24.65;;;2.00;99.90;;;;;;5112939;28;20046;-79
2020/12/09 09:17:50;;;;;;;66.32;22.80;;;2.00;99.90;;;;;;5113846;28;20400;-79
2020/12/09 09:20:16;;;;;;;64.78;23.77;;;2.00;99.90;;;;;;5112757;28;20047;-79
2020/12/09 09:22:43;;;;;;;64.80;24.60;;;2.00;99.90;;;;;;5114066;28;20047;-79
2020/12/09 09:25:08;;;;;;;60.78;23.95;;;1.90;99.90;;;;;;5113741;28;20043;-79
2020/12/09 09:27:34;;;;;;;61.38;21.08;;;1.80;99.90;;;;;;5112615;28;20035;-80
2020/12/09 09:29:59;;;;;;;63.30;23.85;;;1.80;99.90;;;;;;5113147;28;20038;-79
2020/12/09 09:32:26;;;;;;;62.85;23.63;;;1.80;99.90;;;;;;5112476;28;20039;-79
2020/12/09 09:34:52;;;;;;;60.92;22.00;;;1.70;99.90;;;;;;5112550;28;20039;-77
2020/12/09 09:37:18;;;;;;;70.70;24.40;;;1.70;99.90;;;;;;5113728;28;20050;-79
2020/12/09 09:39:44;;;;;;;58.80;21.08;;;1.50;99.90;;;;;;5116685;28;20419;-78
2020/12/09 09:42:10;;;;;;;73.15;23.40;;;1.50;99.90;;;;;;5117698;28;20039;-79
2020/12/09 09:44:36;;;;;;;61.33;20.80;;;1.60;99.90;;;;;;5117778;28;20051;-79
2020/12/09 09:47:01;;;;;;;74.45;25.80;;;1.60;99.90;;;;;;5117460;28;20501;-79
2020/12/09 09:49:28;;;;;;;71.93;24.60;;;1.60;99.90;;;;;;5117024;28;20493;-79
2020/12/09 09:51:53;;;;;;;62.35;21.52;;;1.50;99.90;;;;;;5116179;28;20039;-79
2020/12/09 09:54:19;;;;;;;67.72;23.75;;;1.60;99.90;;;;;;5116122;28;20044;-78
2020/12/09 09:56:45;;;;;;;59.58;22.92;;;1.60;99.90;;;;;;5116109;28;20028;-79
2020/12/09 09:59:11;;;;;;;72.10;25.77;;;1.70;99.90;;;;;;5116921;28;20040;-79
2020/12/09 10:01:37;;;;;;;69.18;23.85;;;1.70;99.90;;;;;;5116026;28;20050;-79
2020/12/09 10:04:06;;;;;;;61.13;21.50;;;1.40;99.90;;;;;;5117393;28;20036;-79
2020/12/09 10:06:33;;;;;;;67.83;23.00;;;1.50;99.90;;;;;;5117083;27;20036;-78
2020/12/09 10:08:59;;;;;;;74.63;24.67;;;1.50;99.90;;;;;;5116632;28;20036;-79
2020/12/09 10:11:24;;;;;;;74.13;25.05;;;1.50;99.90;;;;;;5116948;28;20035;-79
2020/12/09 10:13:51;;;;;;;71.20;24.45;;;1.60;99.90;;;;;;5116994;28;20036;-80
2020/12/09 10:16:23;;;;;;;80.97;24.25;;;1.70;99.90;;;;;;5115700;28;20035;-80
2020/12/09 10:18:48;;;;;;;73.75;25.02;;;1.80;99.90;;;;;;5114936;28;20040;-80
2020/12/09 10:21:20;;;;;;;65.82;23.90;;;1.90;99.90;;;;;;5115563;28;20046;-79
2020/12/09 10:23:46;;;;;;;74.93;24.98;;;1.80;99.90;;;;;;5115540;28;20031;-79
2020/12/09 10:26:12;;;;;;;69.88;25.15;;;1.50;99.90;;;;;;5115462;28;20036;-79
2020/12/09 10:28:37;;;;;;;64.47;22.70;;;1.60;99.90;;;;;;5114918;28;20043;-80
2020/12/09 10:31:03;;;;;;;64.45;21.90;;;1.70;99.90;;;;;;5116607;28;20069;-79
2020/12/09 10:33:29;;;;;;;73.95;26.25;;;1.80;99.90;;;;;;5116698;28;20067;-79
2020/12/09 10:35:54;;;;;;;71.13;23.55;;;1.80;99.90;;;;;;5115406;28;20027;-78
2020/12/09 10:38:20;;;;;;;69.70;24.00;;;1.90;99.90;;;;;;5115447;28;20396;-80
2020/12/09 10:40:46;;;;;;;62.30;22.73;;;1.90;99.90;;;;;;5115980;28;20540;-80
2020/12/09 10:43:13;;;;;;;66.70;23.85;;;1.80;99.90;;;;;;5116565;28;20042;-80
2020/12/09 10:45:39;;;;;;;80.13;25.35;;;1.70;99.90;;;;;;5115084;28;20035;-80
2020/12/09 10:48:04;;;;;;;74.13;23.88;;;1.50;99.90;;;;;;5115133;28;20134;-80
2020/12/09 10:50:30;;;;;;;69.65;24.73;;;1.60;99.90;;;;;;5116193;28;20428;-80
2020/12/09 10:52:56;;;;;;;73.93;23.65;;;1.60;99.90;;;;;;5115095;28;20074;-80
2020/12/09 10:55:23;;;;;;;62.30;22.65;;;1.80;99.90;;;;;;5116190;28;20059;-80
2020/12/09 10:57:49;;;;;;;64.93;22.67;;;1.70;99.90;;;;;;5116237;28;20502;-80
2020/12/09 11:00:15;;;;;;;65.65;22.00;;;1.60;99.90;;;;;;5115685;28;20053;-80
2020/12/09 11:02:41;;;;;;;74.10;24.77;;;1.60;99.90;;;;;;5114797;28;20130;-80
2020/12/09 11:05:06;;;;;;;56.90;20.27;;;1.50;99.90;;;;;;5116074;28;20042;-80
2020/12/09 11:07:32;;;;;;;63.60;22.25;;;1.70;99.90;;;;;;5116092;28;20484;-80
2020/12/09 11:09:58;;;;;;;73.13;24.65;;;1.60;99.90;;;;;;5114362;28;20044;-80
2020/12/09 11:12:23;;;;;;;67.38;21.35;;;1.70;99.90;;;;;;5116059;28;20036;-80
2020/12/09 11:14:52;;;;;;;65.25;21.95;;;1.70;99.90;;;;;;5110309;28;20492;-80
2020/12/09 11:17:18;;;;;;;73.68;23.00;;;1.70;99.90;;;;;;5105405;28;20043;-80
2020/12/09 11:19:43;;;;;;;77.57;25.67;;;1.70;99.90;;;;;;5112365;28;20055;-80
2020/12/09 11:22:09;;;;;;;68.60;24.48;;;1.80;99.90;;;;;;5112663;28;20043;-80
2020/12/09 11:24:35;;;;;;;65.28;21.48;;;1.60;99.90;;;;;;5115286;28;20043;-80
2020/12/09 11:27:01;;;;;;;67.43;21.92;;;1.70;99.90;;;;;;5114104;28;20067;-80
2020/12/09 11:29:26;;;;;;;64.10;21.67;;;1.70;99.90;;;;;;5113596;28;20396;-80
2020/12/09 11:31:54;;;;;;;64.82;20.90;;;1.80;99.90;;;;;;5115376;28;20035;-80
2020/12/09 11:34:21;;;;;;;56.17;20.73;;;1.80;99.90;;;;;;5114072;28;20047;-80
2020/12/09 11:36:46;;;;;;;52.50;18.77;;;1.90;99.90;;;;;;5115278;28;20058;-81
2020/12/09 11:39:12;;;;;;;55.72;20.50;;;2.00;99.90;;;;;;5113456;28;20035;-81
2020/12/09 11:41:37;;;;;;;62.00;21.42;;;2.00;99.90;;;;;;5114177;28;20035;-79
2020/12/09 11:44:03;;;;;;;58.78;20.15;;;2.10;99.90;;;;;;5115158;28;20417;-79
2020/12/09 11:46:29;;;;;;;59.40;20.38;;;2.00;99.90;;;;;;5113911;28;20089;-79
2020/12/09 11:48:55;;;;;;;57.05;20.15;;;1.90;99.90;;;;;;5113055;28;20546;-78
2020/12/09 11:51:21;;;;;;;71.50;20.92;;;1.90;99.90;;;;;;5113632;28;20124;-78
2020/12/09 11:53:47;;;;;;;61.88;22.45;;;1.90;99.90;;;;;;5114927;28;20493;-78
2020/12/09 11:56:18;;;;;;;55.95;20.05;;;2.00;99.90;;;;;;5113620;28;20036;-79
2020/12/09 11:58:44;;;;;;;68.55;21.23;;;1.90;99.90;;;;;;5113447;28;20050;-80
2020/12/09 12:01:10;;;;;;;60.05;20.80;;;2.10;99.90;;;;;;5113192;28;20122;-80
2020/12/09 12:03:35;;;;;;;71.43;23.60;;;2.10;99.90;;;;;;5114767;28;20043;-80
2020/12/09 12:06:02;;;;;;;67.65;21.52;;;2.00;99.90;;;;;;5114678;28;20032;-81
2020/12/09 12:08:27;;;;;;;65.55;22.38;;;2.00;99.90;;;;;;5113442;28;20043;-80
2020/12/09 12:10:53;;;;;;;63.28;22.25;;;2.00;99.90;;;;;;5114241;28;20123;-80
2020/12/09 12:13:19;;;;;;;68.75;22.70;;;2.10;99.90;;;;;;5113661;28;20038;-78
2020/12/09 12:15:44;;;;;;;64.82;21.70;;;2.30;99.90;;;;;;5115051;28;20419;-78
2020/12/09 12:18:10;;;;;;;68.57;22.67;;;2.20;99.90;;;;;;5113255;28;20047;-78
2020/12/09 12:20:36;;;;;;;63.15;21.13;;;2.00;99.90;;;;;;5114042;28;20467;-78
2020/12/09 12:23:02;;;;;;;71.15;22.98;;;2.00;99.90;;;;;;5113616;28;20039;-78
2020/12/09 12:25:28;;;;;;;76.63;25.23;;;1.90;99.90;;;;;;5110489;28;20523;-79
2020/12/09 12:27:53;;;;;;;71.28;23.75;;;1.90;99.90;;;;;;5109925;28;20043;-78
2020/12/09 12:30:19;;;;;;;76.68;24.73;;;2.00;99.90;;;;;;5109494;28;20382;-78
2020/12/09 12:32:45;;;;;;;64.85;22.98;;;2.10;99.90;;;;;;5109683;28;20082;-79
2020/12/09 12:35:10;;;;;;;75.50;29.77;;;2.10;99.90;;;;;;5109931;28;20044;-80
2020/12/09 12:37:36;;;;;;;66.22;22.77;;;2.10;99.90;;;;;;5109304;28;20071;-80